Terminal Aerodrome Forecast
Issued by NWS

Home | Current Version | Previous Version | Text Only | Print | Product List | Glossary On
Versions: 1 2 3 4 5 6 7 8 9 10 11 12
000
FTUS45 KREV 220500
TAFMMH
TAF
KMMH 220522Z 2206/2306 30007KT P6SM SKC
     FM222000 27018G28KT P6SM SKC
     FM230200 30007KT P6SM SKC
      AMD NOT SKED TIL 221400=

USA.gov is the U.S. government's official web portal to all federal, state and local government web resources and services.